sensor_id;sensor_type;location;lat;lon;timestamp;P1;durP1;ratioP1;P2;durP2;ratioP2
4700;SDS011;8724;51.272;6.554;2023-06-22T00:01:24;5.13;;;4.03;;
4700;SDS011;8724;51.272;6.554;2023-06-22T00:03:53;3.43;;;3.13;;
4700;SDS011;8724;51.272;6.554;2023-06-22T00:06:21;3.67;;;3.33;;
4700;SDS011;8724;51.272;6.554;2023-06-22T00:08:49;3.73;;;3.40;;
4700;SDS011;8724;51.272;6.554;2023-06-22T00:11:18;4.67;;;3.93;;
4700;SDS011;8724;51.272;6.554;2023-06-22T00:13:46;3.73;;;3.43;;
4700;SDS011;8724;51.272;6.554;2023-06-22T00:16:16;3.60;;;3.23;;
4700;SDS011;8724;51.272;6.554;2023-06-22T00:18:45;5.07;;;4.00;;
4700;SDS011;8724;51.272;6.554;2023-06-22T00:21:15;4.10;;;3.67;;
4700;SDS011;8724;51.272;6.554;2023-06-22T00:23:43;5.00;;;3.37;;
4700;SDS011;8724;51.272;6.554;2023-06-22T00:26:16;6.80;;;4.10;;
4700;SDS011;8724;51.272;6.554;2023-06-22T00:28:45;4.60;;;3.70;;
4700;SDS011;8724;51.272;6.554;2023-06-22T00:31:13;6.30;;;3.70;;
4700;SDS011;8724;51.272;6.554;2023-06-22T00:33:41;4.33;;;3.93;;
4700;SDS011;8724;51.272;6.554;2023-06-22T00:36:11;3.47;;;3.20;;
4700;SDS011;8724;51.272;6.554;2023-06-22T00:38:42;4.33;;;3.93;;
4700;SDS011;8724;51.272;6.554;2023-06-22T00:41:14;3.90;;;3.50;;
4700;SDS011;8724;51.272;6.554;2023-06-22T00:43:42;5.73;;;3.50;;
4700;SDS011;8724;51.272;6.554;2023-06-22T00:46:10;3.70;;;3.23;;
4700;SDS011;8724;51.272;6.554;2023-06-22T00:48:43;5.83;;;4.37;;
4700;SDS011;8724;51.272;6.554;2023-06-22T00:51:13;4.50;;;3.90;;
4700;SDS011;8724;51.272;6.554;2023-06-22T00:53:42;4.47;;;4.07;;
4700;SDS011;8724;51.272;6.554;2023-06-22T00:56:11;4.97;;;3.63;;
4700;SDS011;8724;51.272;6.554;2023-06-22T00:58:39;4.27;;;3.87;;
4700;SDS011;8724;51.272;6.554;2023-06-22T01:01:08;4.23;;;3.77;;
4700;SDS011;8724;51.272;6.554;2023-06-22T01:03:37;3.60;;;3.30;;
4700;SDS011;8724;51.272;6.554;2023-06-22T01:06:07;4.73;;;4.17;;
4700;SDS011;8724;51.272;6.554;2023-06-22T01:08:45;4.83;;;3.73;;
4700;SDS011;8724;51.272;6.554;2023-06-22T01:11:20;4.27;;;3.97;;
4700;SDS011;8724;51.272;6.554;2023-06-22T01:13:56;5.90;;;4.97;;
4700;SDS011;8724;51.272;6.554;2023-06-22T01:16:31;6.47;;;5.13;;
4700;SDS011;8724;51.272;6.554;2023-06-22T01:19:04;7.20;;;4.70;;
4700;SDS011;8724;51.272;6.554;2023-06-22T01:21:45;8.17;;;5.17;;
4700;SDS011;8724;51.272;6.554;2023-06-22T01:24:18;5.87;;;4.57;;
4700;SDS011;8724;51.272;6.554;2023-06-22T01:26:54;5.70;;;4.20;;
4700;SDS011;8724;51.272;6.554;2023-06-22T01:29:34;10.33;;;4.43;;
4700;SDS011;8724;51.272;6.554;2023-06-22T01:32:05;4.00;;;3.60;;
4700;SDS011;8724;51.272;6.554;2023-06-22T01:34:35;4.47;;;3.70;;
4700;SDS011;8724;51.272;6.554;2023-06-22T01:37:06;4.30;;;3.90;;
4700;SDS011;8724;51.272;6.554;2023-06-22T01:39:36;6.53;;;4.47;;
4700;SDS011;8724;51.272;6.554;2023-06-22T01:42:04;6.47;;;4.73;;
4700;SDS011;8724;51.272;6.554;2023-06-22T01:44:35;6.73;;;4.97;;
4700;SDS011;8724;51.272;6.554;2023-06-22T01:47:04;5.50;;;4.10;;
4700;SDS011;8724;51.272;6.554;2023-06-22T01:49:35;4.43;;;3.83;;
4700;SDS011;8724;51.272;6.554;2023-06-22T01:52:04;7.00;;;4.23;;
4700;SDS011;8724;51.272;6.554;2023-06-22T01:54:33;6.43;;;4.10;;
4700;SDS011;8724;51.272;6.554;2023-06-22T01:57:02;4.97;;;3.77;;
4700;SDS011;8724;51.272;6.554;2023-06-22T01:59:32;6.00;;;4.13;;
4700;SDS011;8724;51.272;6.554;2023-06-22T02:02:06;6.27;;;4.20;;
4700;SDS011;8724;51.272;6.554;2023-06-22T02:04:38;7.50;;;4.23;;
4700;SDS011;8724;51.272;6.554;2023-06-22T02:07:14;6.33;;;4.33;;
4700;SDS011;8724;51.272;6.554;2023-06-22T02:09:45;10.43;;;5.30;;
4700;SDS011;8724;51.272;6.554;2023-06-22T02:12:17;8.40;;;4.53;;
4700;SDS011;8724;51.272;6.554;2023-06-22T02:14:50;6.23;;;5.60;;
4700;SDS011;8724;51.272;6.554;2023-06-22T02:17:19;5.50;;;4.93;;
4700;SDS011;8724;51.272;6.554;2023-06-22T02:19:49;6.17;;;4.87;;
4700;SDS011;8724;51.272;6.554;2023-06-22T02:22:19;8.40;;;6.20;;
4700;SDS011;8724;51.272;6.554;2023-06-22T02:24:47;6.03;;;5.43;;
4700;SDS011;8724;51.272;6.554;2023-06-22T02:27:16;9.70;;;5.30;;
4700;SDS011;8724;51.272;6.554;2023-06-22T02:29:44;7.43;;;4.93;;
4700;SDS011;8724;51.272;6.554;2023-06-22T02:32:13;8.70;;;6.07;;
4700;SDS011;8724;51.272;6.554;2023-06-22T02:34:45;6.97;;;5.80;;
4700;SDS011;8724;51.272;6.554;2023-06-22T02:37:15;7.23;;;5.87;;
4700;SDS011;8724;51.272;6.554;2023-06-22T02:39:43;7.10;;;5.40;;
4700;SDS011;8724;51.272;6.554;2023-06-22T02:42:12;6.83;;;5.10;;
4700;SDS011;8724;51.272;6.554;2023-06-22T02:44:41;7.27;;;5.60;;
4700;SDS011;8724;51.272;6.554;2023-06-22T02:47:11;6.70;;;5.80;;
4700;SDS011;8724;51.272;6.554;2023-06-22T02:49:41;13.23;;;6.43;;
4700;SDS011;8724;51.272;6.554;2023-06-22T02:52:11;8.70;;;6.07;;
4700;SDS011;8724;51.272;6.554;2023-06-22T02:54:40;6.60;;;6.00;;
4700;SDS011;8724;51.272;6.554;2023-06-22T02:57:08;6.60;;;5.87;;
4700;SDS011;8724;51.272;6.554;2023-06-22T02:59:41;7.57;;;5.53;;
4700;SDS011;8724;51.272;6.554;2023-06-22T03:02:11;10.27;;;6.13;;
4700;SDS011;8724;51.272;6.554;2023-06-22T03:04:42;12.20;;;7.13;;
4700;SDS011;8724;51.272;6.554;2023-06-22T03:07:10;6.80;;;5.40;;
4700;SDS011;8724;51.272;6.554;2023-06-22T03:09:39;10.93;;;5.90;;
4700;SDS011;8724;51.272;6.554;2023-06-22T03:12:09;7.43;;;6.40;;
4700;SDS011;8724;51.272;6.554;2023-06-22T03:14:48;7.80;;;5.03;;
4700;SDS011;8724;51.272;6.554;2023-06-22T03:17:16;5.30;;;4.80;;
4700;SDS011;8724;51.272;6.554;2023-06-22T03:19:46;6.43;;;4.70;;
4700;SDS011;8724;51.272;6.554;2023-06-22T03:22:15;6.20;;;5.50;;
4700;SDS011;8724;51.272;6.554;2023-06-22T03:24:43;6.90;;;5.60;;
4700;SDS011;8724;51.272;6.554;2023-06-22T03:27:11;6.40;;;5.10;;
4700;SDS011;8724;51.272;6.554;2023-06-22T03:29:40;7.03;;;5.40;;
4700;SDS011;8724;51.272;6.554;2023-06-22T03:32:08;7.60;;;5.30;;
4700;SDS011;8724;51.272;6.554;2023-06-22T03:34:37;7.20;;;5.33;;
4700;SDS011;8724;51.272;6.554;2023-06-22T03:37:06;6.10;;;5.50;;
4700;SDS011;8724;51.272;6.554;2023-06-22T03:39:35;7.27;;;5.10;;
4700;SDS011;8724;51.272;6.554;2023-06-22T03:42:03;7.50;;;5.33;;
4700;SDS011;8724;51.272;6.554;2023-06-22T03:44:33;6.60;;;5.83;;
4700;SDS011;8724;51.272;6.554;2023-06-22T03:47:04;8.00;;;6.10;;
4700;SDS011;8724;51.272;6.554;2023-06-22T03:49:35;8.67;;;6.17;;
4700;SDS011;8724;51.272;6.554;2023-06-22T03:52:03;7.00;;;5.20;;
4700;SDS011;8724;51.272;6.554;2023-06-22T03:54:34;7.53;;;5.60;;
4700;SDS011;8724;51.272;6.554;2023-06-22T03:57:02;7.57;;;5.63;;
4700;SDS011;8724;51.272;6.554;2023-06-22T03:59:31;7.27;;;5.60;;
4700;SDS011;8724;51.272;6.554;2023-06-22T04:02:00;7.40;;;6.23;;
4700;SDS011;8724;51.272;6.554;2023-06-22T04:04:28;5.20;;;4.70;;
4700;SDS011;8724;51.272;6.554;2023-06-22T04:06:56;9.70;;;7.03;;
4700;SDS011;8724;51.272;6.554;2023-06-22T04:09:25;9.60;;;5.47;;
4700;SDS011;8724;51.272;6.554;2023-06-22T04:11:55;6.87;;;6.20;;
4700;SDS011;8724;51.272;6.554;2023-06-22T04:14:23;9.47;;;7.07;;
4700;SDS011;8724;51.272;6.554;2023-06-22T04:16:51;8.80;;;6.20;;
4700;SDS011;8724;51.272;6.554;2023-06-22T04:19:20;7.80;;;6.30;;
4700;SDS011;8724;51.272;6.554;2023-06-22T04:21:48;7.27;;;6.50;;
4700;SDS011;8724;51.272;6.554;2023-06-22T04:24:17;7.13;;;6.33;;
4700;SDS011;8724;51.272;6.554;2023-06-22T04:26:45;10.33;;;8.17;;
4700;SDS011;8724;51.272;6.554;2023-06-22T04:29:15;8.10;;;7.20;;
4700;SDS011;8724;51.272;6.554;2023-06-22T04:31:44;10.60;;;7.40;;
4700;SDS011;8724;51.272;6.554;2023-06-22T04:34:17;11.20;;;8.20;;
4700;SDS011;8724;51.272;6.554;2023-06-22T04:36:45;12.00;;;8.80;;
4700;SDS011;8724;51.272;6.554;2023-06-22T04:39:14;18.63;;;9.03;;
4700;SDS011;8724;51.272;6.554;2023-06-22T04:41:43;12.90;;;7.50;;
4700;SDS011;8724;51.272;6.554;2023-06-22T04:44:11;11.70;;;9.30;;
4700;SDS011;8724;51.272;6.554;2023-06-22T04:46:42;12.30;;;8.60;;
4700;SDS011;8724;51.272;6.554;2023-06-22T04:49:10;11.03;;;7.87;;
4700;SDS011;8724;51.272;6.554;2023-06-22T04:51:41;13.03;;;8.40;;
4700;SDS011;8724;51.272;6.554;2023-06-22T04:54:10;14.77;;;8.40;;
4700;SDS011;8724;51.272;6.554;2023-06-22T04:56:38;7.47;;;6.67;;
4700;SDS011;8724;51.272;6.554;2023-06-22T04:59:07;11.30;;;6.57;;
4700;SDS011;8724;51.272;6.554;2023-06-22T05:01:39;10.87;;;7.47;;
4700;SDS011;8724;51.272;6.554;2023-06-22T05:04:09;9.07;;;7.13;;
4700;SDS011;8724;51.272;6.554;2023-06-22T05:06:38;10.37;;;7.37;;
4700;SDS011;8724;51.272;6.554;2023-06-22T05:09:07;13.70;;;8.43;;
4700;SDS011;8724;51.272;6.554;2023-06-22T05:11:38;10.53;;;7.37;;
4700;SDS011;8724;51.272;6.554;2023-06-22T05:14:07;12.03;;;7.30;;
4700;SDS011;8724;51.272;6.554;2023-06-22T05:16:35;10.20;;;9.10;;
4700;SDS011;8724;51.272;6.554;2023-06-22T05:19:05;11.33;;;7.70;;
4700;SDS011;8724;51.272;6.554;2023-06-22T05:21:34;13.00;;;8.37;;
4700;SDS011;8724;51.272;6.554;2023-06-22T05:24:02;8.13;;;7.30;;
4700;SDS011;8724;51.272;6.554;2023-06-22T05:26:32;9.07;;;7.90;;
4700;SDS011;8724;51.272;6.554;2023-06-22T05:29:02;8.40;;;6.73;;
4700;SDS011;8724;51.272;6.554;2023-06-22T05:31:31;9.33;;;7.37;;
4700;SDS011;8724;51.272;6.554;2023-06-22T05:33:59;11.03;;;8.37;;
4700;SDS011;8724;51.272;6.554;2023-06-22T05:36:29;8.30;;;7.23;;
4700;SDS011;8724;51.272;6.554;2023-06-22T05:38:57;9.80;;;7.73;;
4700;SDS011;8724;51.272;6.554;2023-06-22T05:41:26;9.33;;;6.90;;
4700;SDS011;8724;51.272;6.554;2023-06-22T05:43:54;12.00;;;8.10;;
4700;SDS011;8724;51.272;6.554;2023-06-22T05:46:22;9.73;;;7.03;;
4700;SDS011;8724;51.272;6.554;2023-06-22T05:48:51;8.50;;;6.97;;
4700;SDS011;8724;51.272;6.554;2023-06-22T05:51:19;9.70;;;7.23;;
4700;SDS011;8724;51.272;6.554;2023-06-22T05:53:49;10.93;;;6.73;;
4700;SDS011;8724;51.272;6.554;2023-06-22T05:56:17;11.93;;;7.23;;
4700;SDS011;8724;51.272;6.554;2023-06-22T05:58:46;8.20;;;7.20;;
4700;SDS011;8724;51.272;6.554;2023-06-22T06:01:15;11.60;;;7.50;;
4700;SDS011;8724;51.272;6.554;2023-06-22T06:03:43;8.43;;;7.10;;
4700;SDS011;8724;51.272;6.554;2023-06-22T06:06:12;8.73;;;6.63;;
4700;SDS011;8724;51.272;6.554;2023-06-22T06:08:40;10.97;;;7.20;;
4700;SDS011;8724;51.272;6.554;2023-06-22T06:11:10;10.43;;;7.57;;
4700;SDS011;8724;51.272;6.554;2023-06-22T06:13:38;8.57;;;6.60;;
4700;SDS011;8724;51.272;6.554;2023-06-22T06:16:07;8.43;;;6.77;;
4700;SDS011;8724;51.272;6.554;2023-06-22T06:18:35;7.10;;;6.30;;
4700;SDS011;8724;51.272;6.554;2023-06-22T06:21:04;7.63;;;6.20;;
4700;SDS011;8724;51.272;6.554;2023-06-22T06:23:32;10.53;;;6.77;;
4700;SDS011;8724;51.272;6.554;2023-06-22T06:26:01;8.73;;;7.30;;
4700;SDS011;8724;51.272;6.554;2023-06-22T06:28:35;9.10;;;5.83;;
4700;SDS011;8724;51.272;6.554;2023-06-22T06:31:04;7.83;;;6.00;;
4700;SDS011;8724;51.272;6.554;2023-06-22T06:33:34;5.70;;;5.20;;
4700;SDS011;8724;51.272;6.554;2023-06-22T06:36:03;5.87;;;5.30;;
4700;SDS011;8724;51.272;6.554;2023-06-22T06:38:31;8.20;;;5.70;;
4700;SDS011;8724;51.272;6.554;2023-06-22T06:40:59;7.43;;;5.70;;
4700;SDS011;8724;51.272;6.554;2023-06-22T06:43:28;6.50;;;5.90;;
4700;SDS011;8724;51.272;6.554;2023-06-22T06:45:58;6.57;;;5.60;;
4700;SDS011;8724;51.272;6.554;2023-06-22T06:48:27;7.57;;;5.30;;
4700;SDS011;8724;51.272;6.554;2023-06-22T06:50:56;5.63;;;5.13;;
4700;SDS011;8724;51.272;6.554;2023-06-22T06:53:25;6.93;;;6.07;;
4700;SDS011;8724;51.272;6.554;2023-06-22T06:55:55;7.67;;;6.40;;
4700;SDS011;8724;51.272;6.554;2023-06-22T06:58:23;6.67;;;6.03;;
4700;SDS011;8724;51.272;6.554;2023-06-22T07:00:52;6.63;;;5.57;;
4700;SDS011;8724;51.272;6.554;2023-06-22T07:03:21;5.53;;;5.00;;
4700;SDS011;8724;51.272;6.554;2023-06-22T07:05:50;9.60;;;6.40;;
4700;SDS011;8724;51.272;6.554;2023-06-22T07:08:18;8.87;;;5.30;;
4700;SDS011;8724;51.272;6.554;2023-06-22T07:10:47;8.87;;;6.20;;
4700;SDS011;8724;51.272;6.554;2023-06-22T07:13:15;8.40;;;6.10;;
4700;SDS011;8724;51.272;6.554;2023-06-22T07:15:44;6.63;;;5.07;;
4700;SDS011;8724;51.272;6.554;2023-06-22T07:18:12;5.47;;;4.97;;
4700;SDS011;8724;51.272;6.554;2023-06-22T07:20:42;7.10;;;5.47;;
4700;SDS011;8724;51.272;6.554;2023-06-22T07:23:11;5.03;;;4.53;;
4700;SDS011;8724;51.272;6.554;2023-06-22T07:25:39;8.10;;;4.60;;
4700;SDS011;8724;51.272;6.554;2023-06-22T07:28:07;5.93;;;4.90;;
4700;SDS011;8724;51.272;6.554;2023-06-22T07:30:37;6.80;;;4.93;;
4700;SDS011;8724;51.272;6.554;2023-06-22T07:33:06;6.13;;;5.53;;
4700;SDS011;8724;51.272;6.554;2023-06-22T07:35:35;6.27;;;4.93;;
4700;SDS011;8724;51.272;6.554;2023-06-22T07:38:05;4.83;;;4.30;;
4700;SDS011;8724;51.272;6.554;2023-06-22T07:40:33;6.27;;;5.50;;
4700;SDS011;8724;51.272;6.554;2023-06-22T07:43:02;6.17;;;5.33;;
4700;SDS011;8724;51.272;6.554;2023-06-22T07:45:31;9.00;;;6.37;;
4700;SDS011;8724;51.272;6.554;2023-06-22T07:48:01;9.53;;;6.97;;
4700;SDS011;8724;51.272;6.554;2023-06-22T10:25:57;7.20;;;6.50;;
4700;SDS011;8724;51.272;6.554;2023-06-22T10:28:26;7.30;;;6.60;;
4700;SDS011;8724;51.272;6.554;2023-06-22T10:30:58;7.93;;;7.00;;
4700;SDS011;8724;51.272;6.554;2023-06-22T10:33:26;6.73;;;5.80;;
4700;SDS011;8724;51.272;6.554;2023-06-22T10:35:55;6.83;;;6.17;;
4700;SDS011;8724;51.272;6.554;2023-06-22T10:38:23;7.73;;;6.50;;
4700;SDS011;8724;51.272;6.554;2023-06-22T10:40:52;8.00;;;6.50;;
4700;SDS011;8724;51.272;6.554;2023-06-22T10:43:23;7.33;;;6.60;;
4700;SDS011;8724;51.272;6.554;2023-06-22T10:45:51;6.70;;;5.97;;
4700;SDS011;8724;51.272;6.554;2023-06-22T10:48:20;8.00;;;6.10;;
4700;SDS011;8724;51.272;6.554;2023-06-22T10:50:48;11.73;;;7.73;;
4700;SDS011;8724;51.272;6.554;2023-06-22T10:53:16;8.40;;;7.10;;
4700;SDS011;8724;51.272;6.554;2023-06-22T10:55:44;9.73;;;7.20;;
4700;SDS011;8724;51.272;6.554;2023-06-22T10:58:24;11.20;;;8.77;;
4700;SDS011;8724;51.272;6.554;2023-06-22T11:00:53;8.57;;;7.53;;
4700;SDS011;8724;51.272;6.554;2023-06-22T11:03:21;15.20;;;10.00;;
4700;SDS011;8724;51.272;6.554;2023-06-22T11:05:49;18.43;;;10.13;;
4700;SDS011;8724;51.272;6.554;2023-06-22T11:08:18;14.33;;;7.87;;
4700;SDS011;8724;51.272;6.554;2023-06-22T11:10:46;12.97;;;8.30;;
4700;SDS011;8724;51.272;6.554;2023-06-22T11:13:15;12.50;;;9.20;;
4700;SDS011;8724;51.272;6.554;2023-06-22T11:15:45;10.97;;;8.33;;
4700;SDS011;8724;51.272;6.554;2023-06-22T11:18:13;12.37;;;8.80;;
4700;SDS011;8724;51.272;6.554;2023-06-22T11:20:41;10.60;;;8.90;;
4700;SDS011;8724;51.272;6.554;2023-06-22T11:23:10;9.77;;;8.77;;
4700;SDS011;8724;51.272;6.554;2023-06-22T11:25:39;12.20;;;9.90;;
4700;SDS011;8724;51.272;6.554;2023-06-22T11:33:53;10.47;;;9.37;;
4700;SDS011;8724;51.272;6.554;2023-06-22T11:36:22;11.37;;;8.10;;
4700;SDS011;8724;51.272;6.554;2023-06-22T11:38:51;10.60;;;9.13;;
4700;SDS011;8724;51.272;6.554;2023-06-22T11:41:19;9.90;;;8.90;;
4700;SDS011;8724;51.272;6.554;2023-06-22T11:43:48;11.03;;;9.93;;
4700;SDS011;8724;51.272;6.554;2023-06-22T11:46:16;14.43;;;9.57;;
4700;SDS011;8724;51.272;6.554;2023-06-22T11:48:44;11.43;;;8.33;;
4700;SDS011;8724;51.272;6.554;2023-06-22T11:51:14;9.40;;;8.47;;
4700;SDS011;8724;51.272;6.554;2023-06-22T11:53:43;9.30;;;8.40;;
4700;SDS011;8724;51.272;6.554;2023-06-22T11:56:11;9.80;;;8.80;;
4700;SDS011;8724;51.272;6.554;2023-06-22T11:58:39;10.83;;;9.63;;
4700;SDS011;8724;51.272;6.554;2023-06-22T12:01:08;10.17;;;9.17;;
4700;SDS011;8724;51.272;6.554;2023-06-22T12:03:36;10.53;;;9.53;;
4700;SDS011;8724;51.272;6.554;2023-06-22T12:06:04;9.60;;;8.77;;
4700;SDS011;8724;51.272;6.554;2023-06-22T12:08:34;9.17;;;8.40;;
4700;SDS011;8724;51.272;6.554;2023-06-22T12:11:04;9.70;;;8.20;;
4700;SDS011;8724;51.272;6.554;2023-06-22T12:13:33;9.97;;;8.93;;
4700;SDS011;8724;51.272;6.554;2023-06-22T12:16:01;9.67;;;8.77;;
4700;SDS011;8724;51.272;6.554;2023-06-22T12:18:30;8.90;;;8.10;;
4700;SDS011;8724;51.272;6.554;2023-06-22T12:20:58;10.70;;;9.60;;
4700;SDS011;8724;51.272;6.554;2023-06-22T12:23:27;13.10;;;11.00;;
4700;SDS011;8724;51.272;6.554;2023-06-22T12:25:56;10.03;;;9.10;;
4700;SDS011;8724;51.272;6.554;2023-06-22T12:28:26;12.63;;;11.37;;
4700;SDS011;8724;51.272;6.554;2023-06-22T12:30:54;11.17;;;10.07;;
4700;SDS011;8724;51.272;6.554;2023-06-22T12:33:22;12.50;;;10.10;;
4700;SDS011;8724;51.272;6.554;2023-06-22T12:35:51;13.17;;;11.87;;
4700;SDS011;8724;51.272;6.554;2023-06-22T12:38:19;13.40;;;11.97;;
4700;SDS011;8724;51.272;6.554;2023-06-22T12:40:47;13.83;;;12.33;;
4700;SDS011;8724;51.272;6.554;2023-06-22T12:43:17;12.73;;;11.03;;
4700;SDS011;8724;51.272;6.554;2023-06-22T12:45:46;15.90;;;10.37;;
4700;SDS011;8724;51.272;6.554;2023-06-22T12:48:14;11.53;;;10.20;;
4700;SDS011;8724;51.272;6.554;2023-06-22T12:50:43;12.50;;;10.97;;
4700;SDS011;8724;51.272;6.554;2023-06-22T12:53:12;13.33;;;11.97;;
4700;SDS011;8724;51.272;6.554;2023-06-22T12:55:40;13.37;;;12.07;;
4700;SDS011;8724;51.272;6.554;2023-06-22T12:58:09;14.73;;;12.83;;
4700;SDS011;8724;51.272;6.554;2023-06-22T13:00:39;13.27;;;12.00;;
4700;SDS011;8724;51.272;6.554;2023-06-22T13:03:07;15.20;;;13.80;;
4700;SDS011;8724;51.272;6.554;2023-06-22T13:05:35;14.67;;;13.10;;
4700;SDS011;8724;51.272;6.554;2023-06-22T13:08:04;13.07;;;11.63;;
4700;SDS011;8724;51.272;6.554;2023-06-22T13:10:33;16.83;;;12.30;;
4700;SDS011;8724;51.272;6.554;2023-06-22T13:13:01;11.70;;;10.63;;
4700;SDS011;8724;51.272;6.554;2023-06-22T13:15:29;11.70;;;10.53;;
4700;SDS011;8724;51.272;6.554;2023-06-22T13:18:00;13.23;;;12.03;;
4700;SDS011;8724;51.272;6.554;2023-06-22T13:20:28;12.60;;;10.30;;
4700;SDS011;8724;51.272;6.554;2023-06-22T13:22:57;14.20;;;11.33;;
4700;SDS011;8724;51.272;6.554;2023-06-22T13:25:25;12.00;;;10.90;;
4700;SDS011;8724;51.272;6.554;2023-06-22T13:27:54;14.07;;;12.77;;
4700;SDS011;8724;51.272;6.554;2023-06-22T13:30:22;13.53;;;12.13;;
4700;SDS011;8724;51.272;6.554;2023-06-22T13:32:51;12.00;;;10.83;;
4700;SDS011;8724;51.272;6.554;2023-06-22T13:35:21;12.67;;;11.47;;
4700;SDS011;8724;51.272;6.554;2023-06-22T13:37:49;11.80;;;10.13;;
4700;SDS011;8724;51.272;6.554;2023-06-22T13:40:18;11.30;;;10.30;;
4700;SDS011;8724;51.272;6.554;2023-06-22T13:42:46;12.30;;;11.10;;
4700;SDS011;8724;51.272;6.554;2023-06-22T13:45:14;10.30;;;9.33;;
4700;SDS011;8724;51.272;6.554;2023-06-22T13:47:45;12.73;;;11.43;;
4700;SDS011;8724;51.272;6.554;2023-06-22T13:50:14;11.90;;;10.73;;
4700;SDS011;8724;51.272;6.554;2023-06-22T13:52:44;11.73;;;10.63;;
4700;SDS011;8724;51.272;6.554;2023-06-22T13:55:12;11.60;;;10.53;;
4700;SDS011;8724;51.272;6.554;2023-06-22T13:57:41;12.10;;;11.00;;
4700;SDS011;8724;51.272;6.554;2023-06-22T14:00:10;12.40;;;11.00;;
4700;SDS011;8724;51.272;6.554;2023-06-22T14:02:40;11.93;;;10.73;;
4700;SDS011;8724;51.272;6.554;2023-06-22T14:05:08;12.80;;;11.50;;
4700;SDS011;8724;51.272;6.554;2023-06-22T14:07:37;10.70;;;9.70;;
4700;SDS011;8724;51.272;6.554;2023-06-22T14:10:07;11.37;;;10.27;;
4700;SDS011;8724;51.272;6.554;2023-06-22T14:12:36;13.00;;;11.80;;
4700;SDS011;8724;51.272;6.554;2023-06-22T14:15:05;14.10;;;12.80;;
4700;SDS011;8724;51.272;6.554;2023-06-22T14:17:34;13.60;;;12.20;;
4700;SDS011;8724;51.272;6.554;2023-06-22T14:20:02;12.43;;;11.23;;
4700;SDS011;8724;51.272;6.554;2023-06-22T14:22:32;14.20;;;12.43;;
4700;SDS011;8724;51.272;6.554;2023-06-22T14:25:01;14.63;;;12.90;;
4700;SDS011;8724;51.272;6.554;2023-06-22T14:27:31;13.77;;;12.40;;
4700;SDS011;8724;51.272;6.554;2023-06-22T14:30:00;13.30;;;12.00;;
4700;SDS011;8724;51.272;6.554;2023-06-22T14:32:32;14.30;;;12.93;;
4700;SDS011;8724;51.272;6.554;2023-06-22T14:35:00;13.13;;;11.83;;
4700;SDS011;8724;51.272;6.554;2023-06-22T14:37:29;11.93;;;10.73;;
4700;SDS011;8724;51.272;6.554;2023-06-22T14:39:57;12.70;;;11.53;;
4700;SDS011;8724;51.272;6.554;2023-06-22T14:42:26;15.90;;;14.37;;
4700;SDS011;8724;51.272;6.554;2023-06-22T14:44:56;15.40;;;12.50;;
4700;SDS011;8724;51.272;6.554;2023-06-22T14:47:24;14.20;;;12.87;;
4700;SDS011;8724;51.272;6.554;2023-06-22T14:49:53;14.27;;;12.87;;
4700;SDS011;8724;51.272;6.554;2023-06-22T14:52:22;13.73;;;12.33;;
4700;SDS011;8724;51.272;6.554;2023-06-22T14:54:51;13.20;;;11.90;;
4700;SDS011;8724;51.272;6.554;2023-06-22T14:57:19;13.37;;;12.00;;
4700;SDS011;8724;51.272;6.554;2023-06-22T14:59:49;12.10;;;11.10;;
4700;SDS011;8724;51.272;6.554;2023-06-22T15:02:19;15.40;;;14.00;;
4700;SDS011;8724;51.272;6.554;2023-06-22T15:04:47;12.13;;;10.93;;
4700;SDS011;8724;51.272;6.554;2023-06-22T15:07:17;13.57;;;12.13;;
4700;SDS011;8724;51.272;6.554;2023-06-22T15:09:45;12.53;;;11.43;;
4700;SDS011;8724;51.272;6.554;2023-06-22T15:12:14;13.10;;;12.00;;
4700;SDS011;8724;51.272;6.554;2023-06-22T15:14:42;14.67;;;13.17;;
4700;SDS011;8724;51.272;6.554;2023-06-22T15:17:11;12.20;;;10.90;;
4700;SDS011;8724;51.272;6.554;2023-06-22T15:19:42;15.53;;;13.63;;
4700;SDS011;8724;51.272;6.554;2023-06-22T15:22:10;11.70;;;10.67;;
4700;SDS011;8724;51.272;6.554;2023-06-22T15:24:39;14.17;;;12.67;;
4700;SDS011;8724;51.272;6.554;2023-06-22T15:27:07;12.10;;;11.00;;
4700;SDS011;8724;51.272;6.554;2023-06-22T15:29:35;14.70;;;13.17;;
4700;SDS011;8724;51.272;6.554;2023-06-22T15:32:04;14.57;;;13.07;;
4700;SDS011;8724;51.272;6.554;2023-06-22T15:34:33;14.10;;;12.70;;
4700;SDS011;8724;51.272;6.554;2023-06-22T15:37:03;16.33;;;14.10;;
4700;SDS011;8724;51.272;6.554;2023-06-22T15:39:32;15.33;;;13.93;;
4700;SDS011;8724;51.272;6.554;2023-06-22T15:42:00;12.53;;;11.23;;
4700;SDS011;8724;51.272;6.554;2023-06-22T15:44:29;13.60;;;12.20;;
4700;SDS011;8724;51.272;6.554;2023-06-22T15:46:57;17.20;;;15.53;;
4700;SDS011;8724;51.272;6.554;2023-06-22T15:49:26;15.30;;;13.80;;
4700;SDS011;8724;51.272;6.554;2023-06-22T15:51:55;15.13;;;13.60;;
4700;SDS011;8724;51.272;6.554;2023-06-22T15:54:25;15.87;;;14.37;;
4700;SDS011;8724;51.272;6.554;2023-06-22T15:56:53;14.40;;;13.03;;
4700;SDS011;8724;51.272;6.554;2023-06-22T15:59:21;15.53;;;13.57;;
4700;SDS011;8724;51.272;6.554;2023-06-22T16:01:50;17.77;;;15.87;;
4700;SDS011;8724;51.272;6.554;2023-06-22T16:04:18;18.77;;;16.90;;
4700;SDS011;8724;51.272;6.554;2023-06-22T16:06:46;26.60;;;24.00;;
4700;SDS011;8724;51.272;6.554;2023-06-22T16:09:17;26.30;;;23.67;;
4700;SDS011;8724;51.272;6.554;2023-06-22T16:11:47;22.53;;;19.87;;
4700;SDS011;8724;51.272;6.554;2023-06-22T16:14:16;22.27;;;19.97;;
4700;SDS011;8724;51.272;6.554;2023-06-22T16:16:44;17.87;;;16.10;;
4700;SDS011;8724;51.272;6.554;2023-06-22T16:19:12;21.87;;;19.33;;
4700;SDS011;8724;51.272;6.554;2023-06-22T16:21:41;22.40;;;19.40;;
4700;SDS011;8724;51.272;6.554;2023-06-22T16:24:10;21.10;;;18.93;;
4700;SDS011;8724;51.272;6.554;2023-06-22T16:26:38;23.57;;;21.13;;
4700;SDS011;8724;51.272;6.554;2023-06-22T16:29:09;20.93;;;18.80;;
4700;SDS011;8724;51.272;6.554;2023-06-22T16:31:38;20.60;;;18.60;;
4700;SDS011;8724;51.272;6.554;2023-06-22T16:34:06;19.33;;;17.23;;
4700;SDS011;8724;51.272;6.554;2023-06-22T16:36:34;20.40;;;18.50;;
4700;SDS011;8724;51.272;6.554;2023-06-22T16:39:03;18.27;;;16.57;;
4700;SDS011;8724;51.272;6.554;2023-06-22T16:41:31;21.40;;;17.67;;
4700;SDS011;8724;51.272;6.554;2023-06-22T16:43:59;18.50;;;16.63;;
4700;SDS011;8724;51.272;6.554;2023-06-22T16:46:33;18.77;;;16.13;;
4700;SDS011;8724;51.272;6.554;2023-06-22T16:49:01;15.50;;;14.07;;
4700;SDS011;8724;51.272;6.554;2023-06-22T16:51:30;19.13;;;17.30;;
4700;SDS011;8724;51.272;6.554;2023-06-22T16:53:58;17.87;;;15.70;;
4700;SDS011;8724;51.272;6.554;2023-06-22T16:56:27;17.80;;;16.10;;
4700;SDS011;8724;51.272;6.554;2023-06-22T16:58:57;17.33;;;15.73;;
4700;SDS011;8724;51.272;6.554;2023-06-22T17:01:29;17.23;;;15.63;;
4700;SDS011;8724;51.272;6.554;2023-06-22T17:04:03;17.83;;;15.80;;
4700;SDS011;8724;51.272;6.554;2023-06-22T17:06:34;17.83;;;16.00;;
4700;SDS011;8724;51.272;6.554;2023-06-22T17:09:03;18.77;;;16.90;;
4700;SDS011;8724;51.272;6.554;2023-06-22T17:11:32;21.97;;;19.30;;
4700;SDS011;8724;51.272;6.554;2023-06-22T17:14:00;22.00;;;19.90;;
4700;SDS011;8724;51.272;6.554;2023-06-22T17:16:30;21.73;;;18.90;;
4700;SDS011;8724;51.272;6.554;2023-06-22T17:19:03;21.30;;;19.20;;
4700;SDS011;8724;51.272;6.554;2023-06-22T17:21:32;21.43;;;19.40;;
4700;SDS011;8724;51.272;6.554;2023-06-22T17:24:01;19.70;;;17.70;;
4700;SDS011;8724;51.272;6.554;2023-06-22T17:26:30;20.80;;;18.70;;
4700;SDS011;8724;51.272;6.554;2023-06-22T17:28:58;23.47;;;18.90;;
4700;SDS011;8724;51.272;6.554;2023-06-22T17:31:35;20.57;;;18.57;;
4700;SDS011;8724;51.272;6.554;2023-06-22T17:34:09;26.07;;;21.90;;
4700;SDS011;8724;51.272;6.554;2023-06-22T17:36:42;20.83;;;18.80;;
4700;SDS011;8724;51.272;6.554;2023-06-22T17:39:11;22.20;;;20.07;;
4700;SDS011;8724;51.272;6.554;2023-06-22T17:41:43;22.20;;;20.10;;
4700;SDS011;8724;51.272;6.554;2023-06-22T17:44:13;21.93;;;19.70;;
4700;SDS011;8724;51.272;6.554;2023-06-22T17:46:45;20.73;;;18.60;;
4700;SDS011;8724;51.272;6.554;2023-06-22T17:49:15;21.17;;;19.20;;
4700;SDS011;8724;51.272;6.554;2023-06-22T17:51:44;21.20;;;19.10;;
4700;SDS011;8724;51.272;6.554;2023-06-22T17:54:14;22.90;;;20.60;;
4700;SDS011;8724;51.272;6.554;2023-06-22T17:56:47;20.53;;;18.40;;